Time;durP1;ratioP1;P1;durP2;ratioP2;P2;SDS_P1;SDS_P2;PMS_P1;PMS_P2;Temp;Humidity;BMP_temperature;BMP_pressure;BME280_temperature;BME280_humidity;BME280_pressure;Samples;Min_cycle;Max_cycle;Signal;HPM_P1;HPM_P2
2020/12/08 00:01:51;;;;;;;;;9.00;7.75;;;;;14.29;55.65;97754.38;4828803;28;102987;-77
2020/12/08 00:04:18;;;;;;;;;9.50;9.00;;;;;14.28;55.57;97751.88;4836700;28;102665;-78
2020/12/08 00:06:44;;;;;;;;;9.50;9.00;;;;;14.26;54.82;97752.16;4839149;28;104810;-78
2020/12/08 00:09:12;;;;;;;;;8.75;8.25;;;;;14.23;55.54;97749.91;4837573;28;104416;-77
2020/12/08 00:11:38;;;;;;;;;10.75;9.00;;;;;14.24;55.70;97750.72;4831338;28;103384;-78
2020/12/08 00:14:09;;;;;;;;;10.50;7.75;;;;;14.23;55.42;97744.47;4834286;28;104453;-77
2020/12/08 00:16:38;;;;;;;;;12.50;9.00;;;;;14.23;54.86;97735.47;4837156;28;103992;-79
2020/12/08 00:19:05;;;;;;;;;9.50;7.00;;;;;14.22;55.38;97731.97;4835255;28;103163;-79
2020/12/08 00:21:32;;;;;;;;;9.00;9.00;;;;;14.20;55.59;97739.53;4831816;28;102581;-79
2020/12/08 00:23:58;;;;;;;;;7.00;7.00;;;;;14.19;54.98;97743.31;4838684;28;102267;-79
2020/12/08 00:26:25;;;;;;;;;9.75;8.75;;;;;14.18;55.28;97747.09;4834280;28;104014;-79
2020/12/08 00:28:52;;;;;;;;;12.00;10.75;;;;;14.16;55.47;97749.25;4832911;28;104276;-79
2020/12/08 00:31:24;;;;;;;;;9.50;9.00;;;;;14.15;55.81;97730.44;4839040;28;103589;-78
2020/12/08 00:33:50;;;;;;;;;12.00;9.50;;;;;14.16;55.07;97743.81;4856732;28;102456;-79
2020/12/08 00:36:17;;;;;;;;;6.00;6.00;;;;;14.13;55.70;97743.47;4830493;28;105898;-79
2020/12/08 00:38:44;;;;;;;;;10.25;8.25;;;;;14.13;55.72;97733.44;4831148;28;104350;-79
2020/12/08 00:41:17;;;;;;;;;8.25;7.00;;;;;14.13;55.73;97738.88;4841005;28;104187;-79
2020/12/08 00:43:46;;;;;;;;;10.75;8.00;;;;;14.14;55.75;97740.50;4834740;28;103730;-79
2020/12/08 00:46:14;;;;;;;;;7.50;7.00;;;;;14.11;55.92;97732.84;4825867;28;107856;-77
2020/12/08 00:48:41;;;;;;;;;6.00;6.00;;;;;14.09;55.26;97737.72;4835049;28;102147;-78
2020/12/08 00:51:08;;;;;;;;;7.00;6.75;;;;;14.07;55.51;97739.84;4839026;28;103235;-78
2020/12/08 00:53:35;;;;;;;;;8.00;7.25;;;;;14.07;54.87;97739.84;4831458;28;104020;-78
2020/12/08 00:56:07;;;;;;;;;7.25;6.25;;;;;14.06;55.62;97732.75;4833957;28;103839;-78
2020/12/08 00:58:33;;;;;;;;;9.75;8.00;;;;;14.04;54.96;97734.88;4837756;28;102632;-78
2020/12/08 01:01:00;;;;;;;;;8.75;8.00;;;;;14.03;55.74;97738.66;4828526;28;105731;-77
2020/12/08 01:03:27;;;;;;;;;7.25;6.50;;;;;14.05;55.95;97741.16;4837009;28;104501;-78
2020/12/08 01:05:54;;;;;;;;;8.25;8.00;;;;;14.02;55.18;97742.44;4828508;28;104045;-76
2020/12/08 01:08:20;;;;;;;;;8.75;7.00;;;;;14.01;55.45;97743.50;4841735;28;102557;-77
2020/12/08 01:10:47;;;;;;;;;6.50;6.25;;;;;14.01;54.86;97735.34;4819394;28;104175;-78
2020/12/08 01:13:13;;;;;;;;;8.00;8.00;;;;;14.00;55.77;97733.72;4837294;28;103326;-77
2020/12/08 01:15:40;;;;;;;;;9.00;7.75;;;;;13.98;55.74;97741.28;4828391;28;111560;-78
2020/12/08 01:18:07;;;;;;;;;9.00;8.00;;;;;13.99;54.94;97742.13;4836916;28;102207;-78
2020/12/08 01:20:33;;;;;;;;;8.25;6.75;;;;;13.98;55.55;97744.00;4832553;28;102978;-78
2020/12/08 01:23:00;;;;;;;;;8.25;7.50;;;;;13.98;55.15;97746.72;4839315;28;102283;-78
2020/12/08 01:25:27;;;;;;;;;7.00;6.75;;;;;13.95;55.24;97741.78;4842275;28;104598;-78
2020/12/08 01:27:54;;;;;;;;;6.00;6.00;;;;;13.95;55.33;97747.22;4827297;28;102231;-78
2020/12/08 01:30:20;;;;;;;;;6.25;6.25;;;;;13.95;55.85;97757.28;4836230;28;102490;-78
2020/12/08 01:32:47;;;;;;;;;10.00;8.75;;;;;13.92;55.01;97750.41;4837458;28;102596;-78
2020/12/08 01:35:13;;;;;;;;;8.00;6.75;;;;;13.91;55.00;97750.66;4841608;28;105583;-78
2020/12/08 01:37:40;;;;;;;;;7.00;7.00;;;;;13.90;55.63;97754.44;4835552;28;102218;-78
2020/12/08 01:40:07;;;;;;;;;8.00;8.00;;;;;13.87;54.87;97752.22;4835170;28;102749;-77
2020/12/08 01:42:34;;;;;;;;;6.75;6.50;;;;;13.86;55.18;97737.81;4836698;28;103133;-77
2020/12/08 01:45:00;;;;;;;;;9.25;6.50;;;;;13.85;55.43;97749.75;4834643;28;104379;-78
2020/12/08 01:47:27;;;;;;;;;8.25;7.00;;;;;13.84;56.08;97745.38;4832606;28;104468;-78
2020/12/08 01:49:54;;;;;;;;;7.50;6.75;;;;;13.82;55.89;97742.88;4837789;28;102562;-78
2020/12/08 01:52:21;;;;;;;;;7.00;7.00;;;;;13.82;55.17;97744.81;4824356;28;102757;-78
2020/12/08 01:54:50;;;;;;;;;5.50;5.25;;;;;13.83;55.10;97736.38;4832229;28;104114;-78
2020/12/08 01:57:17;;;;;;;;;5.00;5.00;;;;;13.83;55.45;97732.84;4833537;28;102558;-78
2020/12/08 01:59:44;;;;;;;;;6.00;6.00;;;;;13.80;55.35;97733.34;4844267;28;102694;-78
2020/12/08 02:02:12;;;;;;;;;7.25;6.00;;;;;13.80;55.91;97744.22;4826088;28;103482;-77
2020/12/08 02:04:39;;;;;;;;;7.25;7.00;;;;;13.78;55.61;97740.91;4802776;28;104473;-77
2020/12/08 02:07:05;;;;;;;;;7.25;6.25;;;;;13.79;55.51;97737.13;4830417;28;103567;-78
2020/12/08 02:09:36;;;;;;;;;5.75;5.75;;;;;13.75;55.71;97741.38;4823719;28;104283;-78
2020/12/08 02:12:05;;;;;;;;;7.25;5.75;;;;;13.76;55.11;97745.75;4831447;28;103128;-78
2020/12/08 02:14:36;;;;;;;;;6.75;6.00;;;;;13.78;55.43;97749.03;4834717;28;103589;-79
2020/12/08 02:17:07;;;;;;;;;9.50;6.25;;;;;13.78;55.70;97752.59;4836998;28;102609;-79
2020/12/08 02:19:35;;;;;;;;;7.25;6.00;;;;;13.75;55.48;97754.97;4836537;28;102546;-79
2020/12/08 02:22:05;;;;;;;;;7.75;6.50;;;;;13.73;55.89;97757.13;4828248;28;104665;-79
2020/12/08 02:24:35;;;;;;;;;7.50;7.50;;;;;13.73;55.02;97759.84;4831824;28;103802;-79
2020/12/08 02:27:06;;;;;;;;;7.50;7.00;;;;;13.72;55.33;97759.00;4827177;28;103795;-79
2020/12/08 02:29:33;;;;;;;;;6.00;5.00;;;;;13.70;55.58;97741.28;4826582;28;102295;-79
2020/12/08 02:32:03;;;;;;;;;5.50;5.50;;;;;13.71;55.99;97748.38;4828381;28;104236;-79
2020/12/08 02:34:34;;;;;;;;;7.00;6.00;;;;;13.70;55.06;97754.88;4831456;28;104410;-79
2020/12/08 02:37:04;;;;;;;;;5.00;4.50;;;;;13.70;55.65;97752.16;4829424;28;102605;-79
2020/12/08 02:39:34;;;;;;;;;4.75;4.50;;;;;13.67;55.83;97753.47;4824766;28;104224;-79
2020/12/08 02:42:06;;;;;;;;;7.00;6.00;;;;;13.68;54.98;97751.59;4827089;28;104101;-79
2020/12/08 02:44:34;;;;;;;;;7.75;7.00;;;;;13.67;55.06;97750.75;4838419;28;103342;-79
2020/12/08 02:47:02;;;;;;;;;6.00;5.00;;;;;13.67;55.47;97749.94;4833694;28;102579;-79
2020/12/08 02:49:30;;;;;;;;;6.75;6.00;;;;;13.63;55.87;97746.03;4832817;28;104155;-79
2020/12/08 02:51:58;;;;;;;;;5.25;5.00;;;;;13.63;55.80;97756.91;4831563;28;102571;-79
2020/12/08 02:54:25;;;;;;;;;5.75;5.75;;;;;13.63;55.92;97754.19;4833743;28;104128;-78
2020/12/08 02:56:51;;;;;;;;;7.00;6.00;;;;;13.61;55.11;97753.59;4831085;28;103936;-78
2020/12/08 02:59:18;;;;;;;;;4.25;4.25;;;;;13.62;55.19;97747.09;4832378;28;103011;-78
2020/12/08 03:01:45;;;;;;;;;6.00;5.00;;;;;13.61;54.93;97759.03;4838596;28;103976;-79
2020/12/08 03:04:12;;;;;;;;;7.00;5.50;;;;;13.62;55.82;97760.69;4833476;28;104285;-79
2020/12/08 03:06:42;;;;;;;;;5.50;5.00;;;;;13.61;54.85;97759.03;4828919;28;104946;-79
2020/12/08 03:09:08;;;;;;;;;5.50;5.00;;;;;13.62;55.73;97758.81;4812148;28;103417;-79
2020/12/08 03:11:35;;;;;;;;;4.00;4.00;;;;;13.62;54.95;97763.41;4822987;28;104531;-79
2020/12/08 03:14:02;;;;;;;;;4.75;4.75;;;;;13.59;55.18;97772.03;4819383;28;103854;-79
2020/12/08 03:16:28;;;;;;;;;6.25;5.00;;;;;13.60;55.36;97771.78;4829615;28;102712;-79
2020/12/08 03:18:55;;;;;;;;;5.00;5.00;;;;;13.58;55.51;97762.25;4836185;28;102630;-79
2020/12/08 03:21:22;;;;;;;;;5.50;4.50;;;;;13.57;55.69;97771.44;4828881;28;102939;-79
2020/12/08 03:23:49;;;;;;;;;7.50;5.50;;;;;13.57;55.77;97769.56;4832455;28;104140;-78
2020/12/08 03:26:22;;;;;;;;;5.00;4.00;;;;;13.53;55.56;97770.28;4840066;28;103851;-79
2020/12/08 03:28:50;;;;;;;;;7.25;5.00;;;;;13.54;55.68;97771.94;4834555;28;103415;-79
2020/12/08 03:31:17;;;;;;;;;3.75;3.00;;;;;13.52;55.43;97769.44;4825682;28;102725;-79
2020/12/08 03:33:43;;;;;;;;;6.75;6.00;;;;;13.52;55.51;97771.34;4832126;28;108927;-79
2020/12/08 03:36:14;;;;;;;;;4.75;4.00;;;;;13.52;55.92;97763.19;4834740;28;103112;-79
2020/12/08 03:38:43;;;;;;;;;4.00;4.00;;;;;13.53;55.44;97767.56;4839858;28;103621;-79
2020/12/08 03:41:10;;;;;;;;;5.50;4.75;;;;;13.51;54.95;97773.22;4834605;28;103130;-79
2020/12/08 03:43:36;;;;;;;;;3.75;3.75;;;;;13.51;55.82;97777.84;4837198;28;104288;-79
2020/12/08 03:46:04;;;;;;;;;4.50;4.25;;;;;13.51;54.74;97780.56;4836382;28;103975;-79
2020/12/08 03:48:31;;;;;;;;;5.50;5.50;;;;;13.51;54.88;97784.09;4837736;28;102627;-79
2020/12/08 03:50:58;;;;;;;;;4.75;4.00;;;;;13.52;55.71;97784.91;4832587;28;102428;-79
2020/12/08 03:53:24;;;;;;;;;6.75;5.00;;;;;13.50;54.73;97781.63;4837703;28;104572;-79
2020/12/08 03:55:51;;;;;;;;;3.00;3.00;;;;;13.49;55.15;97790.84;4833959;28;104002;-79
2020/12/08 03:58:17;;;;;;;;;5.25;4.50;;;;;13.50;55.46;97795.22;4839896;28;102932;-79
2020/12/08 04:00:44;;;;;;;;;4.00;4.00;;;;;13.49;55.04;97793.56;4840613;28;104055;-79
2020/12/08 04:03:12;;;;;;;;;4.50;4.50;;;;;13.47;55.19;97790.25;4837048;28;104244;-79
2020/12/08 04:05:39;;;;;;;;;5.00;5.00;;;;;13.47;55.29;97801.09;4844981;28;102693;-79
2020/12/08 04:08:05;;;;;;;;;5.00;4.00;;;;;13.46;55.72;97794.03;4837130;28;104610;-79
2020/12/08 04:10:32;;;;;;;;;6.00;6.00;;;;;13.47;54.99;97798.38;4841261;28;102661;-79
2020/12/08 04:12:59;;;;;;;;;5.50;4.50;;;;;13.45;55.24;97797.81;4838376;28;104756;-79
2020/12/08 04:15:25;;;;;;;;;4.00;4.00;;;;;13.45;55.72;97790.50;4835849;28;103039;-79
2020/12/08 04:17:52;;;;;;;;;4.50;4.50;;;;;13.43;55.53;97784.47;4832824;28;102397;-79
2020/12/08 04:20:19;;;;;;;;;5.00;4.00;;;;;13.43;55.53;97789.91;4837207;28;103367;-79
2020/12/08 04:22:45;;;;;;;;;5.00;5.00;;;;;13.42;55.57;97792.88;4835877;28;103639;-79
2020/12/08 04:25:12;;;;;;;;;4.50;4.00;;;;;13.40;55.11;97788.50;4829856;28;103711;-79
2020/12/08 04:27:39;;;;;;;;;4.00;3.25;;;;;13.42;54.87;97782.00;4839852;28;102904;-79
2020/12/08 04:30:05;;;;;;;;;3.75;3.75;;;;;13.40;54.63;97780.34;4833999;28;104133;-79
2020/12/08 04:32:32;;;;;;;;;9.75;5.00;;;;;13.38;55.36;97779.75;4837496;28;104166;-79
2020/12/08 04:34:59;;;;;;;;;5.50;5.00;;;;;13.39;55.02;97784.13;4834767;28;108400;-79
2020/12/08 04:37:25;;;;;;;;;5.00;5.00;;;;;13.37;55.81;97778.09;4839272;28;102612;-79
2020/12/08 04:39:52;;;;;;;;;4.00;4.00;;;;;13.37;54.75;97783.53;4834909;28;102726;-79
2020/12/08 04:42:19;;;;;;;;;5.75;5.00;;;;;13.38;55.77;97781.63;4835722;28;104044;-80
2020/12/08 04:44:45;;;;;;;;;9.25;6.00;;;;;13.37;55.54;97772.66;4843506;28;102893;-79
2020/12/08 04:47:18;;;;;;;;;5.50;5.50;;;;;13.37;54.98;97772.66;4826642;28;104582;-79
2020/12/08 04:49:47;;;;;;;;;5.00;5.00;;;;;13.35;55.08;97774.81;4831017;28;103820;-79
2020/12/08 04:52:14;;;;;;;;;5.25;4.25;;;;;13.34;54.84;97784.00;4830742;28;104073;-79
2020/12/08 04:54:42;;;;;;;;;3.50;3.50;;;;;13.34;55.78;97788.63;4827509;28;103819;-79
2020/12/08 04:57:08;;;;;;;;;3.50;3.50;;;;;13.35;55.32;97795.69;4828425;28;104153;-79
2020/12/08 04:59:38;;;;;;;;;4.50;4.00;;;;;13.33;55.27;97798.66;4830288;28;102937;-79
2020/12/08 05:02:06;;;;;;;;;4.00;3.00;;;;;13.30;55.50;97796.41;4840709;28;107022;-79
2020/12/08 05:04:32;;;;;;;;;4.25;4.00;;;;;13.33;55.05;97804.06;4833620;28;103616;-79
2020/12/08 05:07:06;;;;;;;;;5.00;5.00;;;;;13.32;55.14;97802.44;4832908;28;102594;-79
2020/12/08 05:09:45;;;;;;;;;6.00;5.00;;;;;13.32;55.38;97791.59;4844239;28;102644;-78
2020/12/08 05:12:19;;;;;;;;;4.00;3.50;;;;;13.29;55.16;97802.91;4831450;28;107267;-79
2020/12/08 05:14:45;;;;;;;;;4.00;4.00;;;;;13.29;54.69;97802.91;4833934;28;102361;-79
2020/12/08 05:17:12;;;;;;;;;3.00;3.00;;;;;13.28;55.44;97806.66;4837891;28;103809;-79
2020/12/08 05:19:39;;;;;;;;;4.00;3.75;;;;;13.29;55.36;97802.91;4846043;28;102370;-79
2020/12/08 05:22:09;;;;;;;;;3.25;3.00;;;;;13.28;55.46;97797.72;4824963;28;104542;-79
2020/12/08 05:24:36;;;;;;;;;5.25;4.00;;;;;13.28;55.07;97801.25;4841698;28;103350;-78
2020/12/08 05:27:04;;;;;;;;;5.25;4.00;;;;;13.27;54.91;97812.34;4840770;28;104536;-77
2020/12/08 05:29:31;;;;;;;;;4.75;4.00;;;;;13.30;54.91;97814.59;4836040;28;102785;-78
2020/12/08 05:32:12;;;;;;;;;4.50;4.00;;;;;13.29;55.80;97807.50;4826939;28;104326;-78
2020/12/08 05:34:39;;;;;;;;;4.25;3.00;;;;;13.29;55.29;97813.75;4832483;28;103824;-77
2020/12/08 05:37:06;;;;;;;;;4.00;3.00;;;;;13.28;55.49;97828.41;4827430;28;104190;-78
2020/12/08 05:39:32;;;;;;;;;3.50;3.25;;;;;13.28;55.31;97817.53;4822495;28;102759;-78
2020/12/08 05:41:59;;;;;;;;;4.50;3.00;;;;;13.28;55.28;97806.66;4835597;28;104242;-77
2020/12/08 05:44:26;;;;;;;;;3.50;3.00;;;;;13.28;55.48;97816.72;4842095;28;102688;-78
2020/12/08 05:46:53;;;;;;;;;4.25;4.25;;;;;13.25;55.18;97812.59;4842156;28;102562;-77
2020/12/08 05:49:20;;;;;;;;;3.25;3.25;;;;;13.25;54.73;97820.72;4830925;28;103097;-77
2020/12/08 05:51:48;;;;;;;;;3.50;3.00;;;;;13.23;55.67;97820.16;4824721;28;107234;-76
2020/12/08 05:54:20;;;;;;;;;3.00;3.00;;;;;13.23;55.36;97820.16;4840005;28;103615;-77
2020/12/08 05:56:53;;;;;;;;;4.75;4.00;;;;;13.21;55.32;97822.28;4811548;28;102456;-77
2020/12/08 05:59:27;;;;;;;;;4.00;4.00;;;;;13.20;54.99;97820.63;4834452;28;102596;-77
2020/12/08 06:01:54;;;;;;;;;4.25;3.25;;;;;13.19;54.69;97812.72;4812742;28;108982;-79
2020/12/08 06:04:22;;;;;;;;;5.00;4.00;;;;;13.19;55.13;97816.25;4839784;28;102657;-79
2020/12/08 06:06:52;;;;;;;;;2.00;2.00;;;;;13.18;54.74;97817.31;4826879;28;102264;-79
2020/12/08 06:09:22;;;;;;;;;0.50;0.50;;;;;13.20;54.86;97834.19;4833260;28;102579;-79
2020/12/08 06:11:49;;;;;;;;;3.75;3.75;;;;;13.18;55.43;97830.06;4826797;28;109851;-79
2020/12/08 06:14:16;;;;;;;;;4.25;3.75;;;;;13.19;55.42;97835.25;4825536;28;102796;-79
2020/12/08 06:16:42;;;;;;;;;3.50;3.00;;;;;13.18;55.17;97832.78;4834412;28;103295;-79
2020/12/08 06:19:09;;;;;;;;;3.00;3.00;;;;;13.17;55.50;97840.09;4838178;28;104005;-79
2020/12/08 06:21:37;;;;;;;;;4.50;4.00;;;;;13.18;55.00;97843.63;4843395;28;104042;-79
2020/12/08 06:24:04;;;;;;;;;2.00;2.00;;;;;13.16;55.52;97852.00;4837893;28;103005;-77
2020/12/08 06:26:37;;;;;;;;;3.00;3.00;;;;;13.18;54.40;97859.94;4828271;28;103383;-77
2020/12/08 06:29:10;;;;;;;;;3.00;2.00;;;;;13.17;55.26;97855.56;4837651;28;102468;-78
2020/12/08 06:31:42;;;;;;;;;2.75;2.75;;;;;13.15;55.49;97860.41;4837008;28;104158;-77
2020/12/08 06:34:09;;;;;;;;;4.00;4.00;;;;;13.15;55.53;97861.22;4838817;28;102545;-78
2020/12/08 06:36:36;;;;;;;;;3.25;3.00;;;;;13.16;55.17;97862.03;4838126;28;102459;-77
2020/12/08 06:39:07;;;;;;;;;5.00;4.00;;;;;13.15;55.12;97861.22;4839888;28;102457;-78
2020/12/08 06:41:40;;;;;;;;;3.75;3.75;;;;;13.15;55.43;97863.91;4842858;28;102856;-77
2020/12/08 06:44:14;;;;;;;;;3.00;3.00;;;;;13.14;55.09;97865.00;4832152;28;103048;-77
2020/12/08 06:47:01;;;;;;;;;3.00;3.00;;;;;13.15;55.29;97863.13;4837816;28;103308;-77
2020/12/08 06:49:34;;;;;;;;;4.25;3.00;;;;;13.13;54.80;97863.34;4835933;28;102351;-77
2020/12/08 06:52:01;;;;;;;;;2.50;2.25;;;;;13.14;54.81;97864.19;4814451;28;104253;-78
2020/12/08 06:54:27;;;;;;;;;3.00;2.00;;;;;13.13;54.63;97879.63;4831662;28;102590;-77
2020/12/08 06:57:01;;;;;;;;;4.00;3.00;;;;;13.11;54.42;97878.19;4839240;28;102197;-77
2020/12/08 06:59:28;;;;;;;;;4.00;3.00;;;;;13.11;55.35;97883.63;4835577;28;102315;-78
2020/12/08 07:01:56;;;;;;;;;2.75;2.75;;;;;13.13;54.87;97895.91;4836598;28;104356;-77
2020/12/08 07:04:27;;;;;;;;;3.50;2.50;;;;;13.13;54.58;97904.06;4837457;28;102526;-77
2020/12/08 07:06:54;;;;;;;;;2.25;2.25;;;;;13.13;54.35;97906.78;4821018;28;102677;-77
2020/12/08 07:09:21;;;;;;;;;4.00;3.00;;;;;13.14;54.75;97905.72;4836359;28;103568;-77
2020/12/08 07:11:47;;;;;;;;;3.00;3.00;;;;;13.13;54.89;97901.34;4833799;28;104964;-77
2020/12/08 07:14:14;;;;;;;;;3.50;3.00;;;;;13.10;54.38;97901.78;4836535;28;102276;-77
2020/12/08 07:16:41;;;;;;;;;2.00;2.00;;;;;13.10;54.97;97890.94;4834614;28;104342;-77
2020/12/08 07:19:07;;;;;;;;;3.75;3.25;;;;;13.10;54.71;97901.78;4837997;28;102715;-77
2020/12/08 07:21:38;;;;;;;;;3.00;3.00;;;;;13.11;54.88;97898.03;4834084;28;104280;-77
2020/12/08 07:24:08;;;;;;;;;3.75;3.00;;;;;13.10;54.34;97890.94;4790097;28;103788;-76
2020/12/08 07:26:35;;;;;;;;;3.00;2.75;;;;;13.11;54.70;97892.59;4764672;28;102335;-77
2020/12/08 07:29:02;;;;;;;;;2.50;2.00;;;;;13.12;54.39;97894.25;4764996;28;102701;-77
2020/12/08 07:31:30;;;;;;;;;2.00;2.00;;;;;13.10;54.20;97901.78;4761059;28;104093;-78
2020/12/08 07:33:58;;;;;;;;;3.00;2.00;;;;;13.11;54.60;97908.06;4755761;28;105370;-77
2020/12/08 07:36:30;;;;;;;;;2.00;2.00;;;;;13.12;54.41;97904.28;4746367;28;102599;-77
2020/12/08 07:38:58;;;;;;;;;5.75;3.00;;;;;13.11;54.12;97919.75;4754260;28;105742;-77
2020/12/08 07:41:26;;;;;;;;;2.00;2.00;;;;;13.11;54.74;97918.91;4751533;28;108817;-76
2020/12/08 07:43:53;;;;;;;;;4.25;3.75;;;;;13.11;54.12;97906.16;4818736;28;102439;-77
2020/12/08 07:46:22;;;;;;;;;3.00;2.00;;;;;13.12;55.08;97915.16;4830802;28;102645;-77
2020/12/08 07:49:09;;;;;;;;;3.50;2.75;;;;;13.10;54.61;97919.97;4841093;28;102820;-77
2020/12/08 07:51:37;;;;;;;;;2.50;2.50;;;;;13.10;54.46;97923.50;4782727;28;109890;-77
2020/12/08 07:54:07;;;;;;;;;2.50;2.00;;;;;13.10;54.83;97934.38;4831143;28;103435;-77
2020/12/08 07:56:35;;;;;;;;;3.50;3.50;;;;;13.10;54.64;97949.81;4826526;28;103239;-77
2020/12/08 07:59:02;;;;;;;;;4.50;3.00;;;;;13.12;54.95;97937.69;4845703;28;102307;-77
2020/12/08 08:01:29;;;;;;;;;5.00;3.25;;;;;13.11;54.10;97946.88;4837997;28;104121;-78
2020/12/08 08:03:55;;;;;;;;;3.00;3.00;;;;;13.13;54.36;97938.53;4845927;28;102572;-77
2020/12/08 08:06:23;;;;;;;;;4.00;3.00;;;;;13.11;54.94;97922.47;4839191;28;102016;-77
2020/12/08 08:08:51;;;;;;;;;3.00;2.75;;;;;13.10;54.59;97915.38;4839832;28;103235;-77
2020/12/08 08:11:18;;;;;;;;;2.00;2.00;;;;;13.10;54.09;97939.78;4843487;28;104158;-77
2020/12/08 08:13:46;;;;;;;;;3.00;3.00;;;;;13.09;54.22;97943.56;4838581;28;102279;-77
2020/12/08 08:16:16;;;;;;;;;4.00;4.00;;;;;13.09;54.12;97935.41;4842176;28;102585;-77
2020/12/08 08:18:43;;;;;;;;;3.50;2.75;;;;;13.10;53.93;97928.94;4840118;28;102629;-77
2020/12/08 08:21:11;;;;;;;;;3.75;3.50;;;;;13.10;54.34;97914.53;4838029;28;104416;-77
2020/12/08 08:23:38;;;;;;;;;3.00;3.00;;;;;13.11;54.97;97913.47;4838305;28;102526;-76
2020/12/08 08:26:06;;;;;;;;;6.00;4.00;;;;;13.09;54.93;97929.16;4850465;28;102276;-79
2020/12/08 08:28:32;;;;;;;;;3.00;2.75;;;;;13.11;54.31;97940.63;4837114;28;102256;-79
2020/12/08 08:30:59;;;;;;;;;2.75;2.75;;;;;13.11;53.76;97930.59;4839729;28;104218;-79
2020/12/08 08:33:26;;;;;;;;;3.00;2.75;;;;;13.10;54.26;97928.94;4847369;28;102110;-79
2020/12/08 08:35:53;;;;;;;;;3.00;3.00;;;;;13.11;53.73;97935.19;4843639;28;105781;-79
2020/12/08 08:38:21;;;;;;;;;3.00;3.00;;;;;13.10;53.97;97939.78;4849154;28;102271;-79
2020/12/08 08:40:48;;;;;;;;;3.00;3.00;;;;;13.11;54.08;97930.59;4839732;28;104205;-79
2020/12/08 08:43:15;;;;;;;;;3.25;2.50;;;;;13.12;53.98;97932.25;4842617;28;104380;-79
2020/12/08 08:45:41;;;;;;;;;3.00;2.00;;;;;13.11;54.91;97930.59;4843555;28;105101;-79
2020/12/08 08:48:08;;;;;;;;;5.00;3.00;;;;;13.10;53.87;97931.66;4840212;28;102263;-79
2020/12/08 08:50:35;;;;;;;;;3.00;3.00;;;;;13.10;54.71;97938.97;4839693;28;104081;-79
2020/12/08 08:53:02;;;;;;;;;2.75;2.75;;;;;13.11;53.94;97946.06;4839171;28;102137;-79
2020/12/08 08:55:29;;;;;;;;;2.75;2.75;;;;;13.10;54.11;97939.78;4838885;28;102704;-77
2020/12/08 08:58:10;;;;;;;;;1.75;1.75;;;;;13.10;54.60;97928.94;4764714;28;102501;-77
2020/12/08 09:00:37;;;;;;;;;2.50;2.00;;;;;13.10;53.90;97934.38;4845753;28;104978;-77
2020/12/08 09:03:06;;;;;;;;;4.00;3.00;;;;;13.10;54.04;97934.38;4838648;28;102281;-77
2020/12/08 09:05:33;;;;;;;;;4.25;3.75;;;;;13.11;54.60;97922.47;4840328;28;102611;-77
2020/12/08 09:08:00;;;;;;;;;5.00;5.00;;;;;13.11;53.69;97933.31;4847532;28;106573;-78
2020/12/08 09:10:27;;;;;;;;;3.75;3.00;;;;;13.11;54.29;97933.31;4864560;28;108891;-77
2020/12/08 09:12:53;;;;;;;;;2.75;2.25;;;;;13.10;54.72;97931.66;4841407;28;102687;-77
2020/12/08 09:15:20;;;;;;;;;3.50;1.75;;;;;13.10;54.17;97923.50;4836839;28;102670;-78
2020/12/08 09:17:47;;;;;;;;;3.00;3.00;;;;;13.10;54.21;97928.09;4845031;28;102113;-77
2020/12/08 09:20:14;;;;;;;;;4.50;3.50;;;;;13.11;54.22;97930.59;4835258;28;104189;-77
2020/12/08 09:22:41;;;;;;;;;3.25;2.50;;;;;13.11;54.21;97918.91;4841467;28;102671;-77
2020/12/08 09:25:09;;;;;;;;;4.25;4.00;;;;;13.12;54.49;97936.84;4835781;28;102228;-77
2020/12/08 09:27:36;;;;;;;;;6.00;4.00;;;;;13.11;54.53;97938.75;4843005;28;102508;-77
2020/12/08 09:30:04;;;;;;;;;3.00;3.00;;;;;13.11;53.74;97957.75;4841569;28;103677;-78
2020/12/08 09:32:30;;;;;;;;;3.00;2.25;;;;;13.09;54.51;97954.41;4842504;28;102447;-78
2020/12/08 09:34:57;;;;;;;;;3.00;3.00;;;;;13.09;54.21;97946.28;4841233;28;102303;-77
2020/12/08 09:37:25;;;;;;;;;3.75;3.50;;;;;13.09;54.09;97938.13;4843651;28;102764;-77
2020/12/08 09:39:52;;;;;;;;;4.00;4.00;;;;;13.09;53.75;97943.56;4837397;28;103999;-77
2020/12/08 09:42:20;;;;;;;;;4.00;3.50;;;;;13.10;54.30;97956.09;4831429;28;102486;-77
2020/12/08 09:44:47;;;;;;;;;2.75;2.50;;;;;13.10;53.93;97944.41;4844109;28;102171;-77
2020/12/08 09:47:15;;;;;;;;;4.50;3.00;;;;;13.10;53.83;97937.09;4841002;28;102607;-78
2020/12/08 09:49:43;;;;;;;;;2.25;2.25;;;;;13.09;54.06;97915.59;4833999;28;104181;-77
2020/12/08 09:52:09;;;;;;;;;3.75;3.75;;;;;13.10;53.99;97933.53;4839434;28;102160;-76
2020/12/08 09:54:36;;;;;;;;;4.00;3.00;;;;;13.10;54.20;97933.53;4843433;28;102533;-78
2020/12/08 09:57:03;;;;;;;;;3.00;3.00;;;;;13.11;54.46;97924.34;4843848;28;102243;-78
2020/12/08 09:59:29;;;;;;;;;3.25;3.00;;;;;13.12;54.11;97920.56;4823143;28;105325;-77
2020/12/08 10:01:57;;;;;;;;;2.00;2.00;;;;;13.12;54.64;97915.97;4841750;28;102099;-77
2020/12/08 10:04:24;;;;;;;;;3.00;3.00;;;;;13.14;53.50;97919.28;4842422;28;102686;-77
2020/12/08 10:06:50;;;;;;;;;4.00;3.00;;;;;13.15;53.69;97926.34;4834922;28;102701;-77
2020/12/08 10:09:18;;;;;;;;;4.50;4.00;;;;;13.16;54.41;97928.00;4842357;28;104097;-77
2020/12/08 10:11:44;;;;;;;;;3.75;3.00;;;;;13.17;53.45;97929.69;4848206;28;102722;-78
2020/12/08 10:14:11;;;;;;;;;5.00;4.50;;;;;13.18;54.30;97935.94;4841231;28;102739;-78
2020/12/08 10:16:38;;;;;;;;;3.00;3.00;;;;;13.20;53.61;97933.78;4840576;28;102389;-77
2020/12/08 10:19:04;;;;;;;;;4.00;4.00;;;;;13.20;53.65;97934.63;4846239;28;104103;-78
2020/12/08 10:21:31;;;;;;;;;5.50;5.00;;;;;13.21;53.34;97927.31;4840229;28;102746;-78
2020/12/08 10:23:58;;;;;;;;;3.50;3.00;;;;;13.21;53.23;97939.00;4845567;28;102470;-77
2020/12/08 10:26:25;;;;;;;;;4.25;4.00;;;;;13.21;54.14;97936.28;4840311;28;102603;-77
2020/12/08 10:28:51;;;;;;;;;5.00;4.00;;;;;13.23;54.18;97933.34;4843473;28;104035;-78
2020/12/08 10:31:18;;;;;;;;;5.00;4.00;;;;;13.23;53.77;97945.03;4840058;28;102204;-78
2020/12/08 10:33:45;;;;;;;;;3.00;3.00;;;;;13.24;53.92;97938.53;4838325;28;102330;-77
2020/12/08 10:36:13;;;;;;;;;3.00;3.00;;;;;13.25;54.00;97937.47;4842487;28;103899;-77
2020/12/08 10:38:39;;;;;;;;;3.25;3.25;;;;;13.27;53.90;97939.97;4837712;28;104278;-78
2020/12/08 10:41:06;;;;;;;;;4.00;4.00;;;;;13.26;53.22;97927.44;4840182;28;102245;-77
2020/12/08 10:43:33;;;;;;;;;5.00;4.00;;;;;13.27;54.22;97929.94;4837197;28;102539;-78
2020/12/08 10:46:06;;;;;;;;;4.00;3.00;;;;;13.29;54.17;97926.97;4845011;28;108198;-78
2020/12/08 10:48:32;;;;;;;;;5.00;4.00;;;;;13.30;53.74;97928.63;4838605;28;104118;-78
2020/12/08 10:50:59;;;;;;;;;4.00;3.00;;;;;13.31;53.64;97924.84;4843787;28;102441;-77
2020/12/08 10:53:26;;;;;;;;;5.25;4.00;;;;;13.32;53.89;97927.34;4837601;28;103805;-77
2020/12/08 10:55:53;;;;;;;;;4.00;4.00;;;;;13.34;53.06;97932.53;4832318;28;102626;-78
2020/12/08 10:58:20;;;;;;;;;3.50;3.25;;;;;13.34;53.84;97919.78;4836490;28;104068;-77
2020/12/08 11:00:46;;;;;;;;;4.00;4.00;;;;;13.36;53.68;97919.53;4836106;28;102226;-77
2020/12/08 11:03:13;;;;;;;;;5.00;4.25;;;;;13.37;53.96;97916.56;4837695;28;102370;-78
2020/12/08 11:05:40;;;;;;;;;6.00;4.00;;;;;13.38;52.92;97923.66;4842809;28;102639;-78
2020/12/08 11:08:07;;;;;;;;;3.50;3.50;;;;;13.39;52.83;97929.94;4836429;28;105421;-78
2020/12/08 11:10:34;;;;;;;;;4.25;3.25;;;;;13.39;53.51;97922.63;4846990;28;102569;-78
2020/12/08 11:13:01;;;;;;;;;4.25;4.00;;;;;13.42;53.85;97913.16;4839822;28;102430;-77
2020/12/08 11:15:28;;;;;;;;;4.25;4.00;;;;;13.43;53.25;97917.53;4840667;28;102302;-77
2020/12/08 11:17:55;;;;;;;;;3.25;3.25;;;;;13.43;54.03;97922.97;4836570;28;104077;-78
2020/12/08 11:20:22;;;;;;;;;4.25;4.25;;;;;13.44;53.67;97921.91;4851859;28;102746;-78
2020/12/08 11:22:49;;;;;;;;;4.50;3.50;;;;;13.46;52.81;97922.50;4838302;28;102603;-78
2020/12/08 11:25:15;;;;;;;;;2.75;2.75;;;;;13.46;52.78;97916.25;4821683;28;102433;-77
2020/12/08 11:27:42;;;;;;;;;4.25;3.25;;;;;13.47;53.52;97920.59;4840839;28;104251;-77